sensor_id;sensor_type;location;lat;lon;timestamp;P1;durP1;ratioP1;P2;durP2;ratioP2
35576;SDS011;21680;52.400;16.920;2023-08-01T00:01:56;6.30;;;3.10;;
35576;SDS011;21680;52.400;16.920;2023-08-01T00:04:21;6.30;;;2.80;;
35576;SDS011;21680;52.400;16.920;2023-08-01T00:06:47;8.30;;;2.90;;
35576;SDS011;21680;52.400;16.920;2023-08-01T00:09:12;9.60;;;3.00;;
35576;SDS011;21680;52.400;16.920;2023-08-01T00:11:37;7.50;;;3.20;;
35576;SDS011;21680;52.400;16.920;2023-08-01T00:14:02;4.90;;;2.90;;
35576;SDS011;21680;52.400;16.920;2023-08-01T00:16:28;4.30;;;2.40;;
35576;SDS011;21680;52.400;16.920;2023-08-01T00:18:53;7.40;;;3.30;;
35576;SDS011;21680;52.400;16.920;2023-08-01T00:21:18;6.40;;;3.00;;
35576;SDS011;21680;52.400;16.920;2023-08-01T00:23:43;4.80;;;2.60;;
35576;SDS011;21680;52.400;16.920;2023-08-01T00:26:08;7.90;;;2.50;;
35576;SDS011;21680;52.400;16.920;2023-08-01T00:28:34;6.00;;;2.90;;
35576;SDS011;21680;52.400;16.920;2023-08-01T00:31:05;5.60;;;2.90;;
35576;SDS011;21680;52.400;16.920;2023-08-01T00:33:32;4.90;;;3.00;;
35576;SDS011;21680;52.400;16.920;2023-08-01T00:35:57;7.80;;;2.40;;
35576;SDS011;21680;52.400;16.920;2023-08-01T00:38:22;9.40;;;3.00;;
35576;SDS011;21680;52.400;16.920;2023-08-01T00:40:48;8.50;;;3.00;;
35576;SDS011;21680;52.400;16.920;2023-08-01T00:43:13;9.40;;;2.70;;
35576;SDS011;21680;52.400;16.920;2023-08-01T00:45:38;6.20;;;2.80;;
35576;SDS011;21680;52.400;16.920;2023-08-01T00:48:04;6.40;;;2.90;;
35576;SDS011;21680;52.400;16.920;2023-08-01T00:50:29;8.60;;;3.00;;
35576;SDS011;21680;52.400;16.920;2023-08-01T00:52:54;7.60;;;2.70;;
35576;SDS011;21680;52.400;16.920;2023-08-01T00:55:21;5.00;;;2.60;;
35576;SDS011;21680;52.400;16.920;2023-08-01T00:57:48;7.30;;;2.80;;
35576;SDS011;21680;52.400;16.920;2023-08-01T01:00:13;5.20;;;2.90;;
35576;SDS011;21680;52.400;16.920;2023-08-01T01:02:39;4.90;;;2.50;;
35576;SDS011;21680;52.400;16.920;2023-08-01T01:05:04;3.70;;;2.30;;
35576;SDS011;21680;52.400;16.920;2023-08-01T01:07:30;14.80;;;2.70;;
35576;SDS011;21680;52.400;16.920;2023-08-01T01:09:57;6.00;;;2.60;;
35576;SDS011;21680;52.400;16.920;2023-08-01T01:12:23;6.30;;;2.40;;
35576;SDS011;21680;52.400;16.920;2023-08-01T01:14:48;7.90;;;2.40;;
35576;SDS011;21680;52.400;16.920;2023-08-01T01:17:13;8.80;;;2.70;;
35576;SDS011;21680;52.400;16.920;2023-08-01T01:19:39;6.90;;;3.10;;
35576;SDS011;21680;52.400;16.920;2023-08-01T01:22:04;6.10;;;2.40;;
35576;SDS011;21680;52.400;16.920;2023-08-01T01:24:32;7.00;;;2.60;;
35576;SDS011;21680;52.400;16.920;2023-08-01T01:27:00;7.70;;;2.80;;
35576;SDS011;21680;52.400;16.920;2023-08-01T01:29:28;9.30;;;2.60;;
35576;SDS011;21680;52.400;16.920;2023-08-01T01:31:54;3.90;;;2.50;;
35576;SDS011;21680;52.400;16.920;2023-08-01T01:34:20;6.20;;;2.70;;
35576;SDS011;21680;52.400;16.920;2023-08-01T01:36:46;8.60;;;2.40;;
35576;SDS011;21680;52.400;16.920;2023-08-01T01:39:11;6.40;;;2.50;;
35576;SDS011;21680;52.400;16.920;2023-08-01T01:41:36;5.00;;;2.50;;
35576;SDS011;21680;52.400;16.920;2023-08-01T01:44:02;3.40;;;2.30;;
35576;SDS011;21680;52.400;16.920;2023-08-01T01:46:27;6.00;;;2.70;;
35576;SDS011;21680;52.400;16.920;2023-08-01T01:48:52;4.60;;;3.00;;
35576;SDS011;21680;52.400;16.920;2023-08-01T01:51:19;6.10;;;2.70;;
35576;SDS011;21680;52.400;16.920;2023-08-01T01:53:45;7.10;;;2.40;;
35576;SDS011;21680;52.400;16.920;2023-08-01T01:56:10;6.40;;;2.70;;
35576;SDS011;21680;52.400;16.920;2023-08-01T01:58:35;8.60;;;2.90;;
35576;SDS011;21680;52.400;16.920;2023-08-01T02:01:00;6.40;;;2.60;;
35576;SDS011;21680;52.400;16.920;2023-08-01T02:03:26;4.00;;;2.70;;
35576;SDS011;21680;52.400;16.920;2023-08-01T02:05:51;4.70;;;2.20;;
35576;SDS011;21680;52.400;16.920;2023-08-01T02:08:16;6.40;;;2.60;;
35576;SDS011;21680;52.400;16.920;2023-08-01T02:10:41;5.70;;;2.80;;
35576;SDS011;21680;52.400;16.920;2023-08-01T02:13:07;5.40;;;2.50;;
35576;SDS011;21680;52.400;16.920;2023-08-01T02:15:33;5.70;;;2.60;;
35576;SDS011;21680;52.400;16.920;2023-08-01T02:17:59;4.50;;;2.80;;
35576;SDS011;21680;52.400;16.920;2023-08-01T02:20:24;5.00;;;2.60;;
35576;SDS011;21680;52.400;16.920;2023-08-01T02:22:50;3.70;;;2.40;;
35576;SDS011;21680;52.400;16.920;2023-08-01T02:25:15;5.30;;;2.30;;
35576;SDS011;21680;52.400;16.920;2023-08-01T02:27:40;6.40;;;2.60;;
35576;SDS011;21680;52.400;16.920;2023-08-01T02:30:06;3.60;;;2.40;;
35576;SDS011;21680;52.400;16.920;2023-08-01T02:32:31;5.80;;;2.80;;
35576;SDS011;21680;52.400;16.920;2023-08-01T02:34:57;7.60;;;2.80;;
35576;SDS011;21680;52.400;16.920;2023-08-01T02:37:22;6.10;;;2.90;;
35576;SDS011;21680;52.400;16.920;2023-08-01T02:39:47;5.60;;;2.50;;
35576;SDS011;21680;52.400;16.920;2023-08-01T02:42:12;5.70;;;2.80;;
35576;SDS011;21680;52.400;16.920;2023-08-01T02:44:38;7.20;;;2.90;;
35576;SDS011;21680;52.400;16.920;2023-08-01T02:47:03;4.60;;;2.70;;
35576;SDS011;21680;52.400;16.920;2023-08-01T02:49:29;8.90;;;2.90;;
35576;SDS011;21680;52.400;16.920;2023-08-01T02:51:54;6.50;;;2.60;;
35576;SDS011;21680;52.400;16.920;2023-08-01T02:54:19;6.40;;;2.90;;
35576;SDS011;21680;52.400;16.920;2023-08-01T02:56:44;10.00;;;2.70;;
35576;SDS011;21680;52.400;16.920;2023-08-01T02:59:10;4.90;;;2.80;;
35576;SDS011;21680;52.400;16.920;2023-08-01T03:01:36;4.60;;;2.90;;
35576;SDS011;21680;52.400;16.920;2023-08-01T03:04:03;6.50;;;2.50;;
35576;SDS011;21680;52.400;16.920;2023-08-01T03:06:29;8.00;;;2.70;;
35576;SDS011;21680;52.400;16.920;2023-08-01T03:08:54;6.20;;;2.40;;
35576;SDS011;21680;52.400;16.920;2023-08-01T03:11:20;8.60;;;3.40;;
35576;SDS011;21680;52.400;16.920;2023-08-01T03:13:45;4.90;;;3.00;;
35576;SDS011;21680;52.400;16.920;2023-08-01T03:16:10;8.80;;;3.00;;
35576;SDS011;21680;52.400;16.920;2023-08-01T03:18:35;5.60;;;3.00;;
35576;SDS011;21680;52.400;16.920;2023-08-01T03:21:01;5.60;;;3.00;;
35576;SDS011;21680;52.400;16.920;2023-08-01T03:23:28;4.30;;;2.50;;
35576;SDS011;21680;52.400;16.920;2023-08-01T03:25:54;5.90;;;2.50;;
35576;SDS011;21680;52.400;16.920;2023-08-01T03:28:19;5.70;;;3.20;;
35576;SDS011;21680;52.400;16.920;2023-08-01T03:30:45;7.30;;;2.90;;
35576;SDS011;21680;52.400;16.920;2023-08-01T03:33:10;6.70;;;2.80;;
35576;SDS011;21680;52.400;16.920;2023-08-01T03:35:35;7.60;;;2.70;;
35576;SDS011;21680;52.400;16.920;2023-08-01T03:38:01;7.80;;;3.50;;
35576;SDS011;21680;52.400;16.920;2023-08-01T03:40:26;7.60;;;3.10;;
35576;SDS011;21680;52.400;16.920;2023-08-01T03:42:51;11.30;;;3.50;;
35576;SDS011;21680;52.400;16.920;2023-08-01T03:45:16;9.60;;;3.60;;
35576;SDS011;21680;52.400;16.920;2023-08-01T03:47:41;7.70;;;3.20;;
35576;SDS011;21680;52.400;16.920;2023-08-01T03:50:07;8.30;;;3.30;;
35576;SDS011;21680;52.400;16.920;2023-08-01T03:52:33;6.30;;;3.10;;
35576;SDS011;21680;52.400;16.920;2023-08-01T03:54:58;5.10;;;2.90;;
35576;SDS011;21680;52.400;16.920;2023-08-01T03:57:23;5.10;;;2.90;;
35576;SDS011;21680;52.400;16.920;2023-08-01T03:59:48;8.70;;;3.80;;
35576;SDS011;21680;52.400;16.920;2023-08-01T04:02:14;5.10;;;3.00;;
35576;SDS011;21680;52.400;16.920;2023-08-01T04:04:39;8.40;;;3.30;;
35576;SDS011;21680;52.400;16.920;2023-08-01T04:07:04;7.80;;;3.00;;
35576;SDS011;21680;52.400;16.920;2023-08-01T04:09:29;9.00;;;3.40;;
35576;SDS011;21680;52.400;16.920;2023-08-01T04:11:55;8.50;;;3.70;;
35576;SDS011;21680;52.400;16.920;2023-08-01T04:14:20;7.90;;;3.80;;
35576;SDS011;21680;52.400;16.920;2023-08-01T04:16:45;5.80;;;3.60;;
35576;SDS011;21680;52.400;16.920;2023-08-01T04:19:10;6.00;;;3.10;;
35576;SDS011;21680;52.400;16.920;2023-08-01T04:21:36;7.10;;;3.70;;
35576;SDS011;21680;52.400;16.920;2023-08-01T04:24:01;7.70;;;4.00;;
35576;SDS011;21680;52.400;16.920;2023-08-01T04:26:26;6.80;;;4.50;;
35576;SDS011;21680;52.400;16.920;2023-08-01T04:28:51;9.80;;;4.20;;
35576;SDS011;21680;52.400;16.920;2023-08-01T04:31:16;11.90;;;4.20;;
35576;SDS011;21680;52.400;16.920;2023-08-01T04:33:42;11.00;;;4.60;;
35576;SDS011;21680;52.400;16.920;2023-08-01T04:36:08;11.50;;;5.50;;
35576;SDS011;21680;52.400;16.920;2023-08-01T04:38:33;8.70;;;4.40;;
35576;SDS011;21680;52.400;16.920;2023-08-01T04:40:59;11.90;;;4.10;;
35576;SDS011;21680;52.400;16.920;2023-08-01T04:43:25;7.60;;;4.10;;
35576;SDS011;21680;52.400;16.920;2023-08-01T04:45:50;9.10;;;4.20;;
35576;SDS011;21680;52.400;16.920;2023-08-01T04:48:16;11.00;;;4.50;;
35576;SDS011;21680;52.400;16.920;2023-08-01T04:50:41;6.20;;;3.90;;
35576;SDS011;21680;52.400;16.920;2023-08-01T04:53:06;9.60;;;4.50;;
35576;SDS011;21680;52.400;16.920;2023-08-01T04:55:32;9.70;;;4.40;;
35576;SDS011;21680;52.400;16.920;2023-08-01T04:57:57;6.60;;;3.70;;
35576;SDS011;21680;52.400;16.920;2023-08-01T05:00:23;9.40;;;4.10;;
35576;SDS011;21680;52.400;16.920;2023-08-01T05:02:48;10.00;;;4.60;;
35576;SDS011;21680;52.400;16.920;2023-08-01T05:05:14;7.70;;;4.70;;
35576;SDS011;21680;52.400;16.920;2023-08-01T05:07:41;9.50;;;4.50;;
35576;SDS011;21680;52.400;16.920;2023-08-01T05:10:06;7.80;;;3.90;;
35576;SDS011;21680;52.400;16.920;2023-08-01T05:12:32;16.20;;;6.10;;
35576;SDS011;21680;52.400;16.920;2023-08-01T05:14:57;11.30;;;5.30;;
35576;SDS011;21680;52.400;16.920;2023-08-01T05:17:22;11.40;;;5.30;;
35576;SDS011;21680;52.400;16.920;2023-08-01T05:19:48;11.50;;;5.70;;
35576;SDS011;21680;52.400;16.920;2023-08-01T05:22:13;9.70;;;5.80;;
35576;SDS011;21680;52.400;16.920;2023-08-01T05:24:38;12.30;;;5.50;;
35576;SDS011;21680;52.400;16.920;2023-08-01T05:27:04;7.30;;;5.00;;
35576;SDS011;21680;52.400;16.920;2023-08-01T05:29:29;12.50;;;5.30;;
35576;SDS011;21680;52.400;16.920;2023-08-01T05:31:55;10.80;;;5.20;;
35576;SDS011;21680;52.400;16.920;2023-08-01T05:34:20;10.80;;;5.60;;
35576;SDS011;21680;52.400;16.920;2023-08-01T05:36:45;7.50;;;4.70;;
35576;SDS011;21680;52.400;16.920;2023-08-01T05:39:10;8.90;;;4.80;;
35576;SDS011;21680;52.400;16.920;2023-08-01T05:41:36;12.10;;;4.80;;
35576;SDS011;21680;52.400;16.920;2023-08-01T05:44:02;6.90;;;4.40;;
35576;SDS011;21680;52.400;16.920;2023-08-01T05:46:27;10.90;;;5.60;;
35576;SDS011;21680;52.400;16.920;2023-08-01T05:48:52;10.00;;;4.70;;
35576;SDS011;21680;52.400;16.920;2023-08-01T05:51:18;12.40;;;5.20;;
35576;SDS011;21680;52.400;16.920;2023-08-01T05:53:43;11.90;;;5.90;;
35576;SDS011;21680;52.400;16.920;2023-08-01T05:56:08;13.10;;;4.70;;
35576;SDS011;21680;52.400;16.920;2023-08-01T05:58:33;14.10;;;5.30;;
35576;SDS011;21680;52.400;16.920;2023-08-01T06:00:59;11.80;;;5.70;;
35576;SDS011;21680;52.400;16.920;2023-08-01T06:03:24;14.50;;;5.20;;
35576;SDS011;21680;52.400;16.920;2023-08-01T06:05:50;10.20;;;5.10;;
35576;SDS011;21680;52.400;16.920;2023-08-01T06:08:15;8.60;;;4.60;;
35576;SDS011;21680;52.400;16.920;2023-08-01T06:10:43;10.00;;;4.50;;
35576;SDS011;21680;52.400;16.920;2023-08-01T06:13:09;11.10;;;5.00;;
35576;SDS011;21680;52.400;16.920;2023-08-01T06:15:34;6.30;;;3.90;;
35576;SDS011;21680;52.400;16.920;2023-08-01T06:17:59;10.10;;;4.70;;
35576;SDS011;21680;52.400;16.920;2023-08-01T06:20:25;11.80;;;4.40;;
35576;SDS011;21680;52.400;16.920;2023-08-01T06:22:50;10.30;;;4.50;;
35576;SDS011;21680;52.400;16.920;2023-08-01T06:25:15;8.40;;;4.50;;
35576;SDS011;21680;52.400;16.920;2023-08-01T06:27:41;15.00;;;4.90;;
35576;SDS011;21680;52.400;16.920;2023-08-01T06:30:06;15.20;;;4.90;;
35576;SDS011;21680;52.400;16.920;2023-08-01T06:32:32;8.30;;;4.30;;
35576;SDS011;21680;52.400;16.920;2023-08-01T06:34:57;10.90;;;4.60;;
35576;SDS011;21680;52.400;16.920;2023-08-01T06:37:22;10.60;;;5.60;;
35576;SDS011;21680;52.400;16.920;2023-08-01T06:39:48;14.10;;;5.30;;
35576;SDS011;21680;52.400;16.920;2023-08-01T06:42:13;16.30;;;5.20;;
35576;SDS011;21680;52.400;16.920;2023-08-01T06:44:39;43.90;;;7.80;;
35576;SDS011;21680;52.400;16.920;2023-08-01T06:47:05;13.20;;;4.20;;
35576;SDS011;21680;52.400;16.920;2023-08-01T06:49:30;17.60;;;5.40;;
35576;SDS011;21680;52.400;16.920;2023-08-01T06:51:55;34.30;;;6.30;;
35576;SDS011;21680;52.400;16.920;2023-08-01T06:54:21;15.20;;;4.80;;
35576;SDS011;21680;52.400;16.920;2023-08-01T06:56:46;9.70;;;4.50;;
35576;SDS011;21680;52.400;16.920;2023-08-01T06:59:14;9.20;;;5.10;;
35576;SDS011;21680;52.400;16.920;2023-08-01T07:01:40;11.50;;;5.30;;
35576;SDS011;21680;52.400;16.920;2023-08-01T07:04:08;8.60;;;4.20;;
35576;SDS011;21680;52.400;16.920;2023-08-01T07:06:34;8.90;;;4.60;;
35576;SDS011;21680;52.400;16.920;2023-08-01T07:08:59;8.20;;;4.50;;
35576;SDS011;21680;52.400;16.920;2023-08-01T07:11:24;8.40;;;4.20;;
35576;SDS011;21680;52.400;16.920;2023-08-01T07:13:50;12.00;;;4.90;;
35576;SDS011;21680;52.400;16.920;2023-08-01T07:16:15;9.50;;;5.50;;
35576;SDS011;21680;52.400;16.920;2023-08-01T07:18:40;18.10;;;5.10;;
35576;SDS011;21680;52.400;16.920;2023-08-01T07:21:05;9.60;;;4.90;;
35576;SDS011;21680;52.400;16.920;2023-08-01T07:23:31;8.90;;;4.90;;
35576;SDS011;21680;52.400;16.920;2023-08-01T07:25:58;8.80;;;5.10;;
35576;SDS011;21680;52.400;16.920;2023-08-01T07:28:24;8.70;;;5.00;;
35576;SDS011;21680;52.400;16.920;2023-08-01T07:30:57;7.70;;;3.90;;
35576;SDS011;21680;52.400;16.920;2023-08-01T07:33:23;9.00;;;4.10;;
35576;SDS011;21680;52.400;16.920;2023-08-01T07:35:48;12.50;;;7.40;;
35576;SDS011;21680;52.400;16.920;2023-08-01T07:38:13;11.70;;;5.50;;
35576;SDS011;21680;52.400;16.920;2023-08-01T07:40:39;29.70;;;9.00;;
35576;SDS011;21680;52.400;16.920;2023-08-01T07:43:04;11.70;;;5.60;;
35576;SDS011;21680;52.400;16.920;2023-08-01T07:45:29;9.30;;;4.80;;
35576;SDS011;21680;52.400;16.920;2023-08-01T07:47:58;8.90;;;4.30;;
35576;SDS011;21680;52.400;16.920;2023-08-01T07:50:23;8.50;;;5.00;;
35576;SDS011;21680;52.400;16.920;2023-08-01T07:52:49;14.20;;;5.20;;
35576;SDS011;21680;52.400;16.920;2023-08-01T07:55:14;7.90;;;4.20;;
35576;SDS011;21680;52.400;16.920;2023-08-01T07:57:39;8.90;;;4.50;;
35576;SDS011;21680;52.400;16.920;2023-08-01T08:00:05;7.00;;;4.20;;
35576;SDS011;21680;52.400;16.920;2023-08-01T08:02:31;6.50;;;4.60;;
35576;SDS011;21680;52.400;16.920;2023-08-01T08:04:56;6.50;;;3.80;;
35576;SDS011;21680;52.400;16.920;2023-08-01T08:07:21;7.40;;;4.00;;
35576;SDS011;21680;52.400;16.920;2023-08-01T08:09:46;12.30;;;3.70;;
35576;SDS011;21680;52.400;16.920;2023-08-01T08:12:12;10.90;;;5.50;;
35576;SDS011;21680;52.400;16.920;2023-08-01T08:14:37;14.00;;;5.30;;
35576;SDS011;21680;52.400;16.920;2023-08-01T08:17:03;10.50;;;4.70;;
35576;SDS011;21680;52.400;16.920;2023-08-01T08:19:28;8.00;;;4.80;;
35576;SDS011;21680;52.400;16.920;2023-08-01T08:21:54;6.30;;;3.80;;
35576;SDS011;21680;52.400;16.920;2023-08-01T08:24:19;6.80;;;3.70;;
35576;SDS011;21680;52.400;16.920;2023-08-01T08:26:44;11.20;;;3.70;;
35576;SDS011;21680;52.400;16.920;2023-08-01T08:29:10;10.20;;;4.50;;
35576;SDS011;21680;52.400;16.920;2023-08-01T08:31:36;11.50;;;4.20;;
35576;SDS011;21680;52.400;16.920;2023-08-01T08:34:01;5.50;;;3.90;;
35576;SDS011;21680;52.400;16.920;2023-08-01T08:36:26;9.90;;;3.60;;
35576;SDS011;21680;52.400;16.920;2023-08-01T08:38:51;8.60;;;4.20;;
35576;SDS011;21680;52.400;16.920;2023-08-01T08:41:20;6.00;;;3.40;;
35576;SDS011;21680;52.400;16.920;2023-08-01T08:43:47;7.30;;;3.00;;
35576;SDS011;21680;52.400;16.920;2023-08-01T08:46:15;8.60;;;4.80;;
35576;SDS011;21680;52.400;16.920;2023-08-01T08:48:41;7.00;;;3.60;;
35576;SDS011;21680;52.400;16.920;2023-08-01T08:51:07;8.80;;;3.80;;
35576;SDS011;21680;52.400;16.920;2023-08-01T08:53:32;10.70;;;4.10;;
35576;SDS011;21680;52.400;16.920;2023-08-01T08:56:00;14.60;;;4.40;;
35576;SDS011;21680;52.400;16.920;2023-08-01T08:58:25;9.50;;;3.00;;
35576;SDS011;21680;52.400;16.920;2023-08-01T09:00:51;9.00;;;3.50;;
35576;SDS011;21680;52.400;16.920;2023-08-01T09:03:16;4.90;;;2.80;;
35576;SDS011;21680;52.400;16.920;2023-08-01T09:05:48;6.60;;;3.00;;
35576;SDS011;21680;52.400;16.920;2023-08-01T09:08:16;7.10;;;3.70;;
35576;SDS011;21680;52.400;16.920;2023-08-01T09:10:45;10.70;;;3.90;;
35576;SDS011;21680;52.400;16.920;2023-08-01T09:13:11;7.60;;;3.60;;
35576;SDS011;21680;52.400;16.920;2023-08-01T09:15:36;6.80;;;3.90;;
35576;SDS011;21680;52.400;16.920;2023-08-01T09:18:05;8.30;;;3.60;;
35576;SDS011;21680;52.400;16.920;2023-08-01T09:20:39;9.60;;;3.30;;
35576;SDS011;21680;52.400;16.920;2023-08-01T09:23:08;6.70;;;3.40;;
35576;SDS011;21680;52.400;16.920;2023-08-01T09:25:34;7.80;;;3.00;;
35576;SDS011;21680;52.400;16.920;2023-08-01T09:28:00;9.50;;;2.90;;
35576;SDS011;21680;52.400;16.920;2023-08-01T09:30:28;13.90;;;5.70;;
35576;SDS011;21680;52.400;16.920;2023-08-01T09:32:54;7.60;;;4.60;;
35576;SDS011;21680;52.400;16.920;2023-08-01T09:35:21;11.50;;;3.90;;
35576;SDS011;21680;52.400;16.920;2023-08-01T09:37:47;9.70;;;4.90;;
35576;SDS011;21680;52.400;16.920;2023-08-01T09:40:13;7.10;;;3.60;;
35576;SDS011;21680;52.400;16.920;2023-08-01T09:42:44;7.40;;;3.80;;
35576;SDS011;21680;52.400;16.920;2023-08-01T09:45:16;6.50;;;3.30;;
35576;SDS011;21680;52.400;16.920;2023-08-01T09:47:43;7.10;;;3.20;;
35576;SDS011;21680;52.400;16.920;2023-08-01T09:50:09;9.90;;;2.80;;
35576;SDS011;21680;52.400;16.920;2023-08-01T09:52:36;3.50;;;2.60;;
35576;SDS011;21680;52.400;16.920;2023-08-01T09:55:02;5.40;;;2.70;;
35576;SDS011;21680;52.400;16.920;2023-08-01T09:57:28;7.50;;;2.80;;
35576;SDS011;21680;52.400;16.920;2023-08-01T09:59:56;3.90;;;2.30;;
35576;SDS011;21680;52.400;16.920;2023-08-01T10:02:23;4.60;;;2.90;;
35576;SDS011;21680;52.400;16.920;2023-08-01T10:04:54;4.50;;;1.90;;
35576;SDS011;21680;52.400;16.920;2023-08-01T10:07:25;3.90;;;2.00;;
35576;SDS011;21680;52.400;16.920;2023-08-01T10:09:53;3.20;;;2.30;;
35576;SDS011;21680;52.400;16.920;2023-08-01T10:12:20;5.80;;;3.40;;
35576;SDS011;21680;52.400;16.920;2023-08-01T10:14:47;4.50;;;2.90;;
35576;SDS011;21680;52.400;16.920;2023-08-01T10:17:13;9.60;;;4.00;;
35576;SDS011;21680;52.400;16.920;2023-08-01T10:19:40;9.70;;;5.10;;
35576;SDS011;21680;52.400;16.920;2023-08-01T10:22:06;6.30;;;3.00;;
35576;SDS011;21680;52.400;16.920;2023-08-01T10:24:33;4.70;;;2.70;;
35576;SDS011;21680;52.400;16.920;2023-08-01T10:27:19;5.80;;;2.70;;
35576;SDS011;21680;52.400;16.920;2023-08-01T10:29:45;10.80;;;4.10;;
35576;SDS011;21680;52.400;16.920;2023-08-01T10:32:27;6.60;;;4.30;;
35576;SDS011;21680;52.400;16.920;2023-08-01T10:34:54;5.90;;;3.30;;
35576;SDS011;21680;52.400;16.920;2023-08-01T10:37:19;6.90;;;3.50;;
35576;SDS011;21680;52.400;16.920;2023-08-01T10:39:44;5.30;;;3.20;;
35576;SDS011;21680;52.400;16.920;2023-08-01T10:42:20;7.70;;;3.70;;
35576;SDS011;21680;52.400;16.920;2023-08-01T10:44:46;6.20;;;3.60;;
35576;SDS011;21680;52.400;16.920;2023-08-01T10:47:11;7.10;;;3.70;;
35576;SDS011;21680;52.400;16.920;2023-08-01T10:49:37;7.10;;;3.80;;
35576;SDS011;21680;52.400;16.920;2023-08-01T10:54:55;5.70;;;4.10;;
35576;SDS011;21680;52.400;16.920;2023-08-01T10:57:28;10.90;;;5.50;;
35576;SDS011;21680;52.400;16.920;2023-08-01T10:59:55;9.80;;;5.70;;
35576;SDS011;21680;52.400;16.920;2023-08-01T11:02:25;10.30;;;5.90;;
35576;SDS011;21680;52.400;16.920;2023-08-01T11:04:59;9.00;;;4.90;;
35576;SDS011;21680;52.400;16.920;2023-08-01T11:07:25;8.20;;;5.30;;
35576;SDS011;21680;52.400;16.920;2023-08-01T11:12:56;11.60;;;5.40;;
35576;SDS011;21680;52.400;16.920;2023-08-01T11:15:22;13.90;;;5.00;;
35576;SDS011;21680;52.400;16.920;2023-08-01T11:17:52;10.10;;;5.20;;
35576;SDS011;21680;52.400;16.920;2023-08-01T11:20:19;11.80;;;5.30;;
35576;SDS011;21680;52.400;16.920;2023-08-01T11:22:51;11.40;;;5.80;;
35576;SDS011;21680;52.400;16.920;2023-08-01T11:28:08;8.70;;;5.00;;
35576;SDS011;21680;52.400;16.920;2023-08-01T11:30:35;8.70;;;5.80;;
35576;SDS011;21680;52.400;16.920;2023-08-01T11:33:01;10.20;;;6.80;;
35576;SDS011;21680;52.400;16.920;2023-08-01T11:35:28;13.60;;;5.80;;
35576;SDS011;21680;52.400;16.920;2023-08-01T11:37:54;21.70;;;8.20;;
35576;SDS011;21680;52.400;16.920;2023-08-01T11:40:19;13.10;;;7.00;;
35576;SDS011;21680;52.400;16.920;2023-08-01T11:42:48;11.80;;;5.90;;
35576;SDS011;21680;52.400;16.920;2023-08-01T11:45:19;10.90;;;7.00;;
35576;SDS011;21680;52.400;16.920;2023-08-01T11:47:45;10.30;;;5.80;;
35576;SDS011;21680;52.400;16.920;2023-08-01T11:50:11;4.90;;;2.90;;
35576;SDS011;21680;52.400;16.920;2023-08-01T11:52:37;4.20;;;2.50;;
35576;SDS011;21680;52.400;16.920;2023-08-01T11:55:02;3.10;;;1.80;;
35576;SDS011;21680;52.400;16.920;2023-08-01T11:57:28;3.80;;;1.30;;
35576;SDS011;21680;52.400;16.920;2023-08-01T11:59:54;1.80;;;0.90;;
35576;SDS011;21680;52.400;16.920;2023-08-01T12:02:24;1.20;;;1.00;;
35576;SDS011;21680;52.400;16.920;2023-08-01T12:04:51;2.50;;;1.10;;
35576;SDS011;21680;52.400;16.920;2023-08-01T12:07:17;1.90;;;1.20;;
35576;SDS011;21680;52.400;16.920;2023-08-01T12:12:28;3.70;;;1.50;;
35576;SDS011;21680;52.400;16.920;2023-08-01T12:14:53;2.70;;;1.60;;
35576;SDS011;21680;52.400;16.920;2023-08-01T12:17:19;2.80;;;1.50;;
35576;SDS011;21680;52.400;16.920;2023-08-01T12:19:44;2.40;;;1.50;;
35576;SDS011;21680;52.400;16.920;2023-08-01T12:22:11;1.80;;;1.60;;
35576;SDS011;21680;52.400;16.920;2023-08-01T12:24:36;3.50;;;2.20;;
35576;SDS011;21680;52.400;16.920;2023-08-01T12:27:04;7.90;;;2.40;;
35576;SDS011;21680;52.400;16.920;2023-08-01T12:29:33;2.70;;;2.00;;
35576;SDS011;21680;52.400;16.920;2023-08-01T12:31:58;7.50;;;2.90;;
35576;SDS011;21680;52.400;16.920;2023-08-01T12:34:23;5.10;;;2.20;;
35576;SDS011;21680;52.400;16.920;2023-08-01T12:36:48;4.10;;;2.50;;
35576;SDS011;21680;52.400;16.920;2023-08-01T12:39:13;2.30;;;2.10;;
35576;SDS011;21680;52.400;16.920;2023-08-01T12:41:39;3.70;;;2.30;;
35576;SDS011;21680;52.400;16.920;2023-08-01T12:44:04;3.80;;;2.70;;
35576;SDS011;21680;52.400;16.920;2023-08-01T12:46:30;4.30;;;2.90;;
35576;SDS011;21680;52.400;16.920;2023-08-01T12:48:55;4.10;;;3.00;;
35576;SDS011;21680;52.400;16.920;2023-08-01T12:51:20;4.30;;;3.00;;
35576;SDS011;21680;52.400;16.920;2023-08-01T12:53:45;5.10;;;3.80;;
35576;SDS011;21680;52.400;16.920;2023-08-01T12:56:11;6.70;;;4.00;;
35576;SDS011;21680;52.400;16.920;2023-08-01T12:58:36;4.80;;;3.50;;
35576;SDS011;21680;52.400;16.920;2023-08-01T13:01:02;4.10;;;3.70;;
35576;SDS011;21680;52.400;16.920;2023-08-01T13:03:28;5.40;;;4.20;;
35576;SDS011;21680;52.400;16.920;2023-08-01T13:05:54;4.20;;;3.50;;
35576;SDS011;21680;52.400;16.920;2023-08-01T13:08:19;5.00;;;3.20;;
35576;SDS011;21680;52.400;16.920;2023-08-01T13:10:44;5.00;;;3.20;;
35576;SDS011;21680;52.400;16.920;2023-08-01T13:13:11;3.00;;;2.60;;
35576;SDS011;21680;52.400;16.920;2023-08-01T13:15:36;3.40;;;2.60;;
35576;SDS011;21680;52.400;16.920;2023-08-01T13:18:01;3.80;;;2.40;;
35576;SDS011;21680;52.400;16.920;2023-08-01T13:20:27;2.80;;;1.80;;
35576;SDS011;21680;52.400;16.920;2023-08-01T13:22:52;5.10;;;1.70;;
35576;SDS011;21680;52.400;16.920;2023-08-01T13:25:18;1.70;;;1.50;;
35576;SDS011;21680;52.400;16.920;2023-08-01T13:27:44;5.10;;;1.90;;
35576;SDS011;21680;52.400;16.920;2023-08-01T13:30:09;3.10;;;1.80;;
35576;SDS011;21680;52.400;16.920;2023-08-01T13:32:39;6.50;;;2.60;;
35576;SDS011;21680;52.400;16.920;2023-08-01T13:35:04;2.90;;;2.20;;
35576;SDS011;21680;52.400;16.920;2023-08-01T13:37:30;5.20;;;2.10;;
35576;SDS011;21680;52.400;16.920;2023-08-01T13:39:58;2.50;;;2.20;;
35576;SDS011;21680;52.400;16.920;2023-08-01T13:42:25;3.00;;;2.80;;
35576;SDS011;21680;52.400;16.920;2023-08-01T13:44:51;1.90;;;1.70;;
35576;SDS011;21680;52.400;16.920;2023-08-01T13:47:19;2.40;;;2.00;;
35576;SDS011;21680;52.400;16.920;2023-08-01T13:49:44;1.90;;;1.60;;
35576;SDS011;21680;52.400;16.920;2023-08-01T13:52:09;2.70;;;2.20;;
35576;SDS011;21680;52.400;16.920;2023-08-01T13:54:34;3.10;;;2.00;;
35576;SDS011;21680;52.400;16.920;2023-08-01T13:57:00;3.70;;;2.30;;
35576;SDS011;21680;52.400;16.920;2023-08-01T13:59:25;3.10;;;2.10;;
35576;SDS011;21680;52.400;16.920;2023-08-01T14:01:50;2.10;;;1.80;;
35576;SDS011;21680;52.400;16.920;2023-08-01T14:04:16;2.80;;;2.00;;
35576;SDS011;21680;52.400;16.920;2023-08-01T14:06:41;3.70;;;1.90;;
35576;SDS011;21680;52.400;16.920;2023-08-01T14:09:08;3.50;;;2.00;;
35576;SDS011;21680;52.400;16.920;2023-08-01T14:11:34;2.90;;;1.90;;
35576;SDS011;21680;52.400;16.920;2023-08-01T14:13:59;2.40;;;2.00;;
35576;SDS011;21680;52.400;16.920;2023-08-01T14:16:24;4.70;;;1.90;;
35576;SDS011;21680;52.400;16.920;2023-08-01T14:18:50;2.70;;;2.10;;
35576;SDS011;21680;52.400;16.920;2023-08-01T14:21:15;1.70;;;1.40;;
35576;SDS011;21680;52.400;16.920;2023-08-01T14:23:40;4.60;;;2.00;;
35576;SDS011;21680;52.400;16.920;2023-08-01T14:26:06;2.80;;;1.60;;
35576;SDS011;21680;52.400;16.920;2023-08-01T14:28:32;3.20;;;1.80;;
35576;SDS011;21680;52.400;16.920;2023-08-01T14:31:00;4.80;;;2.20;;
35576;SDS011;21680;52.400;16.920;2023-08-01T14:33:27;4.20;;;2.00;;
35576;SDS011;21680;52.400;16.920;2023-08-01T14:35:52;3.40;;;2.20;;